Pagrindinis puslapis
METAR-TAF:

METAR-TAF

Oro uostai :

Frankfurto oro uostas

Frankfurtas, Vokietija

platuma: 50-03N, ilguma: 008-36E, Aukštis: 111 m

Dabartinis oras

Ataskaita buvo paskelbta 24 minutes, ne 09:20 UTC
Vėjas 6 kt iš Rytų, svyruoja nuo Šiaurės Rytų ir Rytų/Pietryčių
Temperatūra 14°C
Drėgmė 47%
Slėgis 1030 hPa
Matomumas 10 km arba daugiau
nėra debesų žemiau 1500 m ir nėra kamuolinių lietaus debesų

METAR: EDDF 200920Z 08006KT 040V110 CAVOK 14/03 Q1030 NOSIG

Laikas: 11:44 (09:44 UTC)

Prognozė

Ataskaita buvo paskelbta 4 valandos ir 44 minutes, ne 05:00 UTC
Prognozė galioja nuo 20 metu 06 UTC su 21 metu 12 UTC
Vėjas 6 kt iš Rytų/Šiaurės Rytų
Matomumas 10 km arba daugiau
nėra debesų žemiau 1500 m ir nėra kamuolinių lietaus debesų

TAF: EDDF 200500Z 2006/2112 06006KT CAVOK

Orai ataskaitas ir orų prognozės (METAR, TAF).

turimą stotys yra geltonos ir raudonos taškus žemėlapyje.

Perkelti pele per norėdami pamatyti stoties vardą.

Tada spustelėkite, norėdami matyti oro stebėjimo ir prognozės.

Norėdami pakeisti žemėlapį: spustelėkite ant žalios mygtukų su juodo kryžiaus žemyn,; žalią mygtuką su brūkšneliu, jei norite nutolinti; arba žalių rodyklių gretimoms žemėlapius.


METAR-TAF: